Aérodrome :
LOGIN :

S'inscrire | Disclaimer

   EN    FR    IT 

 










Légende :    VFR   VFR Marginal   IFR   IFR Intensif   IFR Très Intensif
Visi : 
Plafond : 
>= 8 km
>= 3000ft
5 à 8 km
1000 à 3000 ft
1500m à 5 km
500 à 1000 ft
800 à 1500m
200 à 500 ft
< 800m
< 200 ft
Symboles :   Orages  Brouillard  Fortes neiges  Fortes précipitations  Vent > 20 kt
SIGMETs :   Divers  Orages  Givrage  Turbulence  Onde Orograph.  Cendres Volcan.







- Altitude de l'aérodrome : -15 ft
- Code IATA : RTM


EHRD - Rotterdam Zestienhoven

DERNIER METAR :
  • 192325Z AUTO 16009KT 9999 FEW015CB 18/14 Q1005 NOSIG

METARs EXPIRÉS :
  • 192255Z AUTO 17009KT 140V200 9999 FEW015CB 17/15 Q1005 NOSIG
  • 192225Z AUTO 19015G26KT 150V230 9999 -RA FEW015CB SCT049 17/15 Q1006 RERA REDZ NOSIG
  • 192155Z AUTO 16011KT 130V200 9999 FEW009 FEW015CB 17/15 Q1006 REDZ NOSIG
  • 192125Z AUTO 15009KT 120V190 9999 FEW034 18/14 Q1006 NOSIG
  • 192055Z AUTO 15008KT 9999 NSC 18/14 Q1006 NOSIG

TAF TAF EHRD
Valide du 19 à 18h jusqu'au 21 à 00h UTC


191701Z 1918/2024 16010KT CAVOK
TEMPO 2004/2019 7000 RA -SHRA SCT015TCU BKN020
BECMG 2005/2007 19012KT
BECMG 2007/2010 20017G27KT
PROB30
TEMPO 2011/2017 4000 SHRA RA SCT008 BKN012 SCT015CB
BECMG 2019/2022 19012KT
Pas de NOTAMs connus pour ce terrain.



MET'MAP, la Météo Aéronautique d'un coup d'oeil ! - Copyright ORBIFLY Décembre 2007 - Disclaimer

ORBIFLY MET'MAP TEAM :

Programmation & Développement : Alexandra Zaïnal
Conception & Développement : Baudouin d'Aumeries
Co-Programmation & Développement : Marc-Olivier Méhu
Soutien technique & logistique : Manuel Goepfert

Contact : metmap@orbifly.com




SOURCES & CREDITS :

   NOAA